Wednesday, October 01, 2014
18:24 UTC
  |  Log In   |  Register Free
Airport Search:

Pocono Mountains Municipal Airport
(KMPO)

Pocono Mountains Municipal Airport Diagram
No Airport Diagram Available

FAA data valid effective September 18, 2014 - November 13, 2014 (unless otherwise noted).

 
 
 
 
 
 
 
 
 
 
 
 
 
 

Current Aviation Weather for Pocono Mountains Municipal Airport (KMPO)

The most recent METAR observation for KMPO was updated at: 1812
METAR Summary (Translated METAR)
KMPO
011801Z AUTO 07008KT 10SM SCT032 OVC039 17/12 A3007 RMK AO2 T01720122 TSNO $
KAVP
011754Z 12006KT 10SM FEW040 BKN055 BKN090 22/12 A3003 RMK AO2 SLP163 T02220117 10233 20156 58013
(19.6 nm NW from KMPO)
KHZL
011755Z AUTO 31005KT 10SM BKN028 BKN034 19/13 A3008 RMK AO2
(29.3 nm SW from KMPO)
TAF Summary (Translated TAF)
KAVP
(19.6 nm NW from KMPO)
011731Z 0118/0218 03005KT P6SM BKN045 FM020300 VRB03KT P6SM SCT035 TEMPO 0208/0212 3SM BR BKN015 FM021400 02005KT P6SM BKN040
  Airport Weather Conditions for KMPO

 Current Weather at MPO
62° F
Overcast
Northeast winds at 10.4 mph
MPO NOAA Radar

Pressure: 30.07 in
Humidity: 75%
Wind: Northeast at 10.4 MPH (9 KT)
Dew Point: 54.0°F
Visibility: 10.00 mi


Airport Weather Forecast for KMPO

Translated METAR and TAF for KMPO
Translated METAR for KMPO (1819 UTC 01 October 2014)
found at http://aviationweather.gov/adds/metars/
 
METAR text: KMPO 011801Z AUTO 07008KT 10SM SCT032 OVC039 17/12 A3007 RMK AO2 T01720122 TSNO $
Conditions at: KMPO (MT. POCONO , PA, US) observed 1801 UTC 01 October 2014
Temperature: 17.2°C (63°F)
Dewpoint: 12.2°C (54°F) [RH = 72%]
Pressure (altimeter): 30.07 inches Hg (1018.4 mb)
Winds: from the ENE (70 degrees) at 9 MPH (8 knots; 4.2 m/s)
Visibility: 10 or more miles (16+ km)
Ceiling: 3900 feet AGL
Clouds: scattered clouds at 3200 feet AGL
overcast cloud deck at 3900 feet AGL
Weather:
SOME DATA ABOVE MAY BE INACCURATE!!!
"$" is an indication the sensor requires maintenance
Translated TAF for KMPO

There is no translated TAF available for this airport

Find All Airport Services Find A Hotel Find A Rental Car Find A Golf Course Find A Restaurant $100 Hamburger



FBO's on the Field
FBO Company Facility Photos Services Transportation Aviation Fuel Prices: Prices include tax
Catering Weather Repair Courtesy Rental Type 100LL JetA JetA+ MOGAS 8087
 
Pocono Mountains Municipal Airport Authority

This FBO has not yet been rated
FS:Phillips66
Last Updated: Sep-02
Login to update fuel prices
SS:
Contact Pocono Mountains Municipal Airport AuthorityMore FBO Information
 
Add another FBO Facility Photos Catering Weather Repair Courtesy Rental Type 100LL JetA JetA+ MOGAS 8087
Services Transportation Aviation Fuel Prices: Prices include tax


model-print
model-print
model-print
model-print